Andrew J. Barberi — WYR3370 — position and weather

sailwx.info

Track history (hours):
 
Tides and Currents Weather Stations Pressure Air Temp Water Temp Dewpoint Dewpoint Depression Visibility Wind Speed Wind Dir Waves Ship Positions

Andrew J. Barberi

Owner: CITY OF NEW YORK, Brooklyn, NY. More information available from US FCC via Universal Licensing System and Coast Guard Vessel Documentation Center.

Last reported at 2016-Jun-15 16:16 UTC. Time now 2016-Jul-23 23:11 UTC.
Position N 40°39' W 074°04'.
Warning: this ship's position is 38 days out of date.

Length 94 m; draft 4.3 m.

Type: Ship. MMSI: 367000150.

Date/timePositionNaut miles runAvg speedWind from/ knotsBaromVisibWave heightAir tempDewpointWater temp
2016-Jun-15 16:16N 40°39' W 074°04'2 3.2
2016-Jun-15 15:34N 40°37' W 074°03'2 2.3
2016-Jun-15 14:34N 40°39' W 074°04'0 0.1
2016-Jun-15 13:33N 40°39' W 074°04'0 0.1
2016-Jun-15 12:34N 40°39' W 074°04'0 0.0
2016-Jun-15 11:33N 40°39' W 074°04'0 0.1
2016-Jun-15 10:34N 40°39' W 074°04'0 0.0
2016-Jun-15 09:32N 40°39' W 074°04'0 0.0
2016-Jun-15 08:32N 40°39' W 074°04'0 0.0
2016-Jun-15 07:32N 40°39' W 074°04'0 0.0
2016-Jun-15 06:32N 40°39' W 074°04'0 0.0
2016-Jun-15 05:32N 40°39' W 074°04'0 0.0
2016-Jun-15 04:33N 40°39' W 074°04'0 0.1
2016-Jun-15 03:33N 40°39' W 074°04'0 0.3
2016-Jun-15 02:34N 40°39' W 074°04'4 4.0
2016-Jun-15 01:34N 40°42' W 074°01'4 4.2
2016-Jun-15 00:33N 40°39' W 074°04'1 1.4
2016-Jun-14 23:34N 40°40' W 074°03'0 0.2
2016-Jun-14 22:33N 40°40' W 074°03'1 0.8
2016-Jun-14 21:34N 40°39' W 074°04'1 0.8
2016-Jun-14 20:33N 40°39' W 074°04'0 0.2
2016-Jun-14 19:33N 40°39' W 074°04'4 4.1
2016-Jun-14 18:34N 40°42' W 074°01'4 4.2
2016-Jun-14 17:34N 40°39' W 074°04'0 0.3
2016-Jun-14 16:34N 40°39' W 074°04'0 0.3
2016-Jun-14 15:34N 40°39' W 074°04'0 0.3
2016-Jun-14 14:33N 40°39' W 074°04'4 4.0
2016-Jun-14 13:34N 40°42' W 074°01'0 0.1
2016-Jun-14 12:33N 40°42' W 074°01'0 0.0
2016-Jun-14 11:33N 40°42' W 074°01'4 4.3
2016-Jun-14 10:34N 40°39' W 074°04'0 0.0
2016-Jun-14 09:33N 40°39' W 074°04'0 0.0
2016-Jun-14 08:33N 40°39' W 074°04'0 0.0
2016-Jun-14 07:33N 40°39' W 074°04'0 0.0
2016-Jun-14 06:33N 40°39' W 074°04'0 0.0
2016-Jun-14 04:33N 40°39' W 074°04'0 0.1
2016-Jun-14 03:33N 40°39' W 074°04'0 0.3
2016-Jun-14 02:33N 40°39' W 074°04'4 3.9
2016-Jun-14 01:34N 40°42' W 074°01'4 4.1
2016-Jun-14 00:33N 40°39' W 074°04'2 2.0
2016-Jun-13 23:33N 40°40' W 074°03'0 0.1
2016-Jun-13 22:33N 40°40' W 074°03'0 0.4
2016-Jun-13 21:33N 40°40' W 074°03'2 1.6
2016-Jun-13 20:34N 40°39' W 074°04'0 0.1
2016-Jun-13 19:34N 40°39' W 074°04'4 4.2
2016-Jun-13 18:33N 40°42' W 074°01'4 4.2
2016-Jun-13 17:33N 40°39' W 074°04'0 0.2
2016-Jun-13 16:34N 40°39' W 074°04'4 4.0
2016-Jun-13 15:34N 40°42' W 074°01'0 0.0
2016-Jun-13 14:33N 40°42' W 074°01'0 0.0
2016-Jun-13 13:34N 40°42' W 074°01'0 0.0
2016-Jun-13 12:34N 40°42' W 074°01'0 0.1
2016-Jun-13 11:34N 40°42' W 074°01'4 4.2
2016-Jun-13 10:33N 40°39' W 074°04'0 0.1
2016-Jun-13 09:33N 40°39' W 074°04'0 0.0
2016-Jun-13 08:31N 40°39' W 074°04'0 0.0
2016-Jun-13 07:19N 40°39' W 074°04'0 0.0
2016-Jun-13 06:25N 40°39' W 074°04'0 0.0
2016-Jun-13 04:33N 40°39' W 074°04'4 4.1
2016-Jun-13 03:33N 40°42' W 074°01'0 0.1
2016-Jun-13 02:34N 40°42' W 074°01'0 0.2
2016-Jun-13 01:33N 40°42' W 074°01'0 0.0
2016-Jun-13 00:34N 40°42' W 074°01'0 0.0
2016-Jun-12 23:33N 40°42' W 074°01'0 0.0
2016-Jun-12 22:34N 40°42' W 074°01'4 4.3
2016-Jun-12 21:33N 40°39' W 074°04'0 0.2
2016-Jun-12 20:33N 40°39' W 074°04'4 4.1
2016-Jun-12 19:33N 40°42' W 074°01'4 4.3
2016-Jun-12 18:34N 40°39' W 074°04'0 0.3
2016-Jun-12 17:33N 40°39' W 074°04'4 3.9
2016-Jun-12 16:33N 40°42' W 074°01'4 4.2
2016-Jun-12 15:33N 40°39' W 074°04'0 0.0
2016-Jun-12 14:33N 40°39' W 074°04'0 0.3
2016-Jun-12 13:34N 40°39' W 074°04'0 0.0
2016-Jun-12 12:34N 40°39' W 074°04'0 0.2
2016-Jun-12 11:34N 40°39' W 074°04'0 0.2
2016-Jun-12 10:33N 40°39' W 074°04'0 0.0
2016-Jun-12 09:33N 40°39' W 074°04'0 0.0
2016-Jun-12 08:30N 40°39' W 074°04'0 0.0
2016-Jun-12 07:33N 40°39' W 074°04'0 0.0
2016-Jun-12 06:31N 40°39' W 074°04'0 0.0
2016-Jun-12 04:34N 40°39' W 074°04'4 4.3
2016-Jun-12 03:33N 40°42' W 074°01'0 0.0
2016-Jun-12 02:34N 40°42' W 074°01'0 0.0
2016-Jun-12 01:33N 40°42' W 074°01'0 0.0
2016-Jun-12 00:33N 40°42' W 074°01'0 0.0
2016-Jun-11 23:34N 40°42' W 074°01'0 0.0
2016-Jun-11 22:33N 40°42' W 074°01'4 4.3
2016-Jun-11 21:33N 40°39' W 074°04'0 0.2
2016-Jun-11 20:34N 40°39' W 074°04'4 4.1
2016-Jun-11 19:33N 40°42' W 074°01'4 8.1
2016-Jun-11 19:04N 40°39' W 074°04'0 0.8
2016-Jun-11 18:33N 40°39' W 074°04'0 0.4
2016-Jun-11 17:34N 40°39' W 074°04'4 3.9
2016-Jun-11 16:33N 40°42' W 074°01'4 4.2
2016-Jun-11 15:33N 40°39' W 074°04'0 0.4
2016-Jun-11 14:33N 40°39' W 074°04'0 0.1
2016-Jun-11 13:33N 40°39' W 074°04'0 0.1
2016-Jun-11 12:33N 40°39' W 074°04'0 0.1
2016-Jun-11 11:34N 40°39' W 074°04'0 0.2
2016-Jun-11 10:33N 40°39' W 074°04'0 0.0
2016-Jun-11 09:33N 40°39' W 074°04'0 0.0
2016-Jun-11 08:33N 40°39' W 074°04'0 0.0
2016-Jun-11 07:33N 40°39' W 074°04'0 0.0
2016-Jun-11 06:33N 40°39' W 074°04'0 0.0
2016-Jun-11 05:33N 40°39' W 074°04'0 0.0
2016-Jun-11 04:33N 40°39' W 074°04'0 0.0
2016-Jun-11 03:33N 40°39' W 074°04'0 0.1
2016-Jun-11 02:34N 40°39' W 074°04'4 4.3
2016-Jun-11 01:33N 40°42' W 074°01'4 4.3
2016-Jun-11 00:33N 40°39' W 074°04'1 1.4
2016-Jun-10 23:33N 40°40' W 074°03'0 0.3
2016-Jun-10 22:34N 40°39' W 074°03'1 0.9
2016-Jun-10 21:34N 40°39' W 074°04'0 0.3
2016-Jun-10 20:33N 40°39' W 074°04'0 0.1
2016-Jun-10 19:33N 40°39' W 074°04'4 4.2
2016-Jun-10 18:33N 40°42' W 074°01'0 0.2
2016-Jun-10 17:33N 40°42' W 074°01'4 4.0
2016-Jun-10 16:33N 40°39' W 074°04'0 0.1
2016-Jun-10 15:33N 40°39' W 074°04'0 0.2
2016-Jun-10 14:33N 40°39' W 074°04'4 4.0
2016-Jun-10 13:33N 40°42' W 074°01'0 0.0
2016-Jun-10 12:34N 40°42' W 074°01'0 0.0
2016-Jun-10 11:33N 40°42' W 074°01'4 4.2
2016-Jun-10 10:33N 40°39' W 074°04'0 0.0
2016-Jun-10 09:33N 40°39' W 074°04'0 0.0
2016-Jun-10 08:33N 40°39' W 074°04'0 0.0
2016-Jun-10 07:33N 40°39' W 074°04'0 0.0
2016-Jun-10 06:33N 40°39' W 074°04'0 0.0
2016-Jun-10 05:33N 40°39' W 074°04'0 0.0
2016-Jun-10 04:33N 40°39' W 074°04'0 0.1
2016-Jun-10 03:33N 40°39' W 074°04'0 0.4
2016-Jun-10 02:33N 40°39' W 074°04'4 3.9
2016-Jun-10 01:33N 40°42' W 074°01'4 4.2
2016-Jun-10 00:33N 40°39' W 074°04'1 1.3
2016-Jun-09 23:34N 40°40' W 074°03'1 1.0
2016-Jun-09 22:33N 40°39' W 074°04'0 0.5
2016-Jun-09 21:34N 40°39' W 074°04'0 0.4
2016-Jun-09 20:34N 40°39' W 074°04'0 0.1
2016-Jun-09 19:34N 40°39' W 074°04'4 3.9
2016-Jun-09 18:34N 40°42' W 074°01'4 3.8
2016-Jun-09 17:32N 40°39' W 074°04'0 0.1
2016-Jun-09 16:33N 40°39' W 074°04'0 0.0
2016-Jun-09 15:33N 40°39' W 074°04'0 0.0
2016-Jun-09 14:33N 40°39' W 074°04'4 4.3
2016-Jun-09 13:33N 40°42' W 074°01'0 0.0
2016-Jun-09 12:34N 40°42' W 074°01'0 0.0
2016-Jun-09 11:34N 40°42' W 074°01'4 4.3
2016-Jun-09 10:34N 40°39' W 074°04'0 0.0
2016-Jun-09 09:34N 40°39' W 074°04'0 0.0
2016-Jun-09 08:33N 40°39' W 074°04'0 0.0
2016-Jun-09 07:33N 40°39' W 074°04'0 0.0
2016-Jun-09 06:33N 40°39' W 074°04'0 0.0
2016-Jun-09 05:33N 40°39' W 074°04'0 0.0
2016-Jun-09 04:33N 40°39' W 074°04'0 0.0
2016-Jun-09 03:33N 40°39' W 074°04'0 0.3
2016-Jun-09 02:33N 40°39' W 074°04'4 3.8
2016-Jun-09 01:34N 40°42' W 074°01'4 4.0
2016-Jun-09 00:33N 40°39' W 074°04'1 1.3
2016-Jun-08 23:33N 40°40' W 074°03'1 1.1
2016-Jun-08 22:33N 40°39' W 074°04'0 0.1
2016-Jun-08 21:34N 40°39' W 074°04'0 0.2
2016-Jun-08 20:33N 40°39' W 074°04'0 0.1
2016-Jun-08 19:33N 40°39' W 074°04'4 4.1
2016-Jun-08 18:34N 40°42' W 074°01'4 4.1
2016-Jun-08 17:33N 40°39' W 074°04'0 0.3
2016-Jun-08 16:34N 40°39' W 074°04'0 0.3
2016-Jun-08 15:34N 40°39' W 074°04'0 0.3
2016-Jun-08 14:34N 40°39' W 074°04'4 3.9
2016-Jun-08 13:34N 40°42' W 074°01'0 0.1
2016-Jun-08 12:33N 40°42' W 074°01'0 0.2
2016-Jun-08 11:33N 40°42' W 074°01'4 4.3
2016-Jun-08 10:33N 40°39' W 074°04'0 0.0
2016-Jun-08 09:33N 40°39' W 074°04'0 0.0
2016-Jun-08 08:33N 40°39' W 074°04'0 0.0
2016-Jun-08 07:33N 40°39' W 074°04'0 0.0
2016-Jun-08 06:33N 40°39' W 074°04'0 0.0
2016-Jun-08 05:33N 40°39' W 074°04'0 0.0
2016-Jun-08 04:33N 40°39' W 074°04'0 0.1
2016-Jun-08 03:33N 40°39' W 074°04'0 0.2
2016-Jun-08 02:33N 40°39' W 074°04'4 4.0
2016-Jun-08 01:34N 40°42' W 074°01'4 4.1
2016-Jun-08 00:34N 40°39' W 074°04'2 1.6
2016-Jun-07 23:33N 40°40' W 074°03'1 1.3
2016-Jun-07 22:34N 40°39' W 074°04'0 0.2
2016-Jun-07 21:34N 40°39' W 074°04'0 0.1
2016-Jun-07 20:33N 40°39' W 074°04'0 0.2
2016-Jun-07 19:33N 40°39' W 074°04'4 4.1
2016-Jun-07 18:34N 40°42' W 074°01'4 4.2
2016-Jun-07 17:34N 40°39' W 074°04'0 0.1
2016-Jun-07 16:33N 40°39' W 074°04'0 0.1
2016-Jun-07 15:33N 40°39' W 074°04'0 0.3
2016-Jun-07 14:33N 40°39' W 074°04'4 3.9
2016-Jun-07 13:34N 40°42' W 074°01'0 0.0
2016-Jun-07 12:33N 40°42' W 074°01'0 0.0
2016-Jun-07 11:33N 40°42' W 074°01'4 4.2
2016-Jun-07 10:33N 40°39' W 074°04'0 0.0
2016-Jun-07 09:33N 40°39' W 074°04'0 0.0
2016-Jun-07 08:32N 40°39' W 074°04'0 0.0
2016-Jun-07 07:32N 40°39' W 074°04'0 0.0
2016-Jun-07 06:32N 40°39' W 074°04'0 0.0
2016-Jun-07 05:32N 40°39' W 074°04'0 0.0
2016-Jun-07 04:34N 40°39' W 074°04'0 0.1
2016-Jun-07 03:33N 40°39' W 074°04'0 0.4
2016-Jun-07 02:34N 40°39' W 074°04'4 3.9
2016-Jun-07 01:33N 40°42' W 074°01'4 4.2
2016-Jun-07 00:33N 40°39' W 074°04'2 2.1
2016-Jun-06 23:33N 40°40' W 074°03'1 1.0
2016-Jun-06 22:34N 40°39' W 074°03'1 0.8
2016-Jun-06 21:34N 40°39' W 074°04'0 0.4
2016-Jun-06 20:27N 40°39' W 074°04'0 0.3
2016-Jun-06 19:34N 40°39' W 074°04'4 4.1
2016-Jun-06 18:33N 40°42' W 074°01'4 4.3
2016-Jun-06 17:34N 40°39' W 074°04'0 0.0
2016-Jun-06 16:33N 40°39' W 074°04'0 0.0
2016-Jun-06 15:33N 40°39' W 074°04'0 0.2
2016-Jun-06 14:33N 40°39' W 074°04'4 3.9
2016-Jun-06 13:34N 40°42' W 074°01'0 0.1
2016-Jun-06 12:33N 40°42' W 074°01'0 0.0
2016-Jun-06 11:33N 40°42' W 074°01'4 4.2
2016-Jun-06 10:33N 40°39' W 074°04'0 0.0
2016-Jun-06 05:15N 40°39' W 074°04'0 0.2
2016-Jun-06 04:33N 40°39' W 074°04'4 4.2
2016-Jun-06 03:33N 40°42' W 074°01'0 0.1
2016-Jun-06 02:33N 40°42' W 074°01'0 0.0
2016-Jun-06 01:34N 40°42' W 074°01'0 0.1
2016-Jun-06 00:34N 40°42' W 074°01'0 0.1
2016-Jun-05 23:33N 40°42' W 074°01'0 0.0
2016-Jun-05 22:34N 40°42' W 074°01'4 4.2
2016-Jun-05 21:33N 40°39' W 074°04'0 0.2
2016-Jun-05 20:33N 40°39' W 074°04'4 4.1
2016-Jun-05 19:33N 40°42' W 074°01'4 4.3
2016-Jun-05 18:33N 40°39' W 074°04'0 0.3
2016-Jun-05 17:33N 40°39' W 074°04'4 4.0
2016-Jun-05 16:33N 40°42' W 074°01'  
Track history (hours):
 
Tides and Currents Weather Stations Pressure Air Temp Water Temp Dewpoint Dewpoint Depression Visibility Wind Speed Wind Dir Waves Ship Positions

Andrew J. Barberi

Owner: CITY OF NEW YORK, Brooklyn, NY. More information available from US FCC via Universal Licensing System and Coast Guard Vessel Documentation Center.

Last reported at 2016-Jun-15 16:16 UTC. Time now 2016-Jul-23 23:12 UTC.
Position N 40°39' W 074°04'.
Warning: this ship's position is 38 days out of date.

Length 94 m; draft 4.3 m.

Type: Ship. MMSI: 367000150.

Date/timePositionNaut miles runAvg speedWind from/ knotsBaromVisibWave heightAir tempDewpointWater temp
2016-Jun-15 16:16N 40°39' W 074°04'2 3.2
2016-Jun-15 15:34N 40°37' W 074°03'2 2.3
2016-Jun-15 14:34N 40°39' W 074°04'0 0.1
2016-Jun-15 13:33N 40°39' W 074°04'0 0.1
2016-Jun-15 12:34N 40°39' W 074°04'0 0.0
2016-Jun-15 11:33N 40°39' W 074°04'0 0.1
2016-Jun-15 10:34N 40°39' W 074°04'0 0.0
2016-Jun-15 09:32N 40°39' W 074°04'0 0.0
2016-Jun-15 08:32N 40°39' W 074°04'0 0.0
2016-Jun-15 07:32N 40°39' W 074°04'0 0.0
2016-Jun-15 06:32N 40°39' W 074°04'0 0.0
2016-Jun-15 05:32N 40°39' W 074°04'0 0.0
2016-Jun-15 04:33N 40°39' W 074°04'0 0.1
2016-Jun-15 03:33N 40°39' W 074°04'0 0.3
2016-Jun-15 02:34N 40°39' W 074°04'4 4.0
2016-Jun-15 01:34N 40°42' W 074°01'4 4.2
2016-Jun-15 00:33N 40°39' W 074°04'1 1.4
2016-Jun-14 23:34N 40°40' W 074°03'0 0.2
2016-Jun-14 22:33N 40°40' W 074°03'1 0.8
2016-Jun-14 21:34N 40°39' W 074°04'1 0.8
2016-Jun-14 20:33N 40°39' W 074°04'0 0.2
2016-Jun-14 19:33N 40°39' W 074°04'4 4.1
2016-Jun-14 18:34N 40°42' W 074°01'4 4.2
2016-Jun-14 17:34N 40°39' W 074°04'0 0.3
2016-Jun-14 16:34N 40°39' W 074°04'0 0.3
2016-Jun-14 15:34N 40°39' W 074°04'0 0.3
2016-Jun-14 14:33N 40°39' W 074°04'4 4.0
2016-Jun-14 13:34N 40°42' W 074°01'0 0.1
2016-Jun-14 12:33N 40°42' W 074°01'0 0.0
2016-Jun-14 11:33N 40°42' W 074°01'4 4.3
2016-Jun-14 10:34N 40°39' W 074°04'0 0.0
2016-Jun-14 09:33N 40°39' W 074°04'0 0.0
2016-Jun-14 08:33N 40°39' W 074°04'0 0.0
2016-Jun-14 07:33N 40°39' W 074°04'0 0.0
2016-Jun-14 06:33N 40°39' W 074°04'0 0.0
2016-Jun-14 04:33N 40°39' W 074°04'0 0.1
2016-Jun-14 03:33N 40°39' W 074°04'0 0.3
2016-Jun-14 02:33N 40°39' W 074°04'4 3.9
2016-Jun-14 01:34N 40°42' W 074°01'4 4.1
2016-Jun-14 00:33N 40°39' W 074°04'2 2.0
2016-Jun-13 23:33N 40°40' W 074°03'0 0.1
2016-Jun-13 22:33N 40°40' W 074°03'0 0.4
2016-Jun-13 21:33N 40°40' W 074°03'2 1.6
2016-Jun-13 20:34N 40°39' W 074°04'0 0.1
2016-Jun-13 19:34N 40°39' W 074°04'4 4.2
2016-Jun-13 18:33N 40°42' W 074°01'4 4.2
2016-Jun-13 17:33N 40°39' W 074°04'0 0.2
2016-Jun-13 16:34N 40°39' W 074°04'4 4.0
2016-Jun-13 15:34N 40°42' W 074°01'0 0.0
2016-Jun-13 14:33N 40°42' W 074°01'0 0.0
2016-Jun-13 13:34N 40°42' W 074°01'0 0.0
2016-Jun-13 12:34N 40°42' W 074°01'0 0.1
2016-Jun-13 11:34N 40°42' W 074°01'4 4.2
2016-Jun-13 10:33N 40°39' W 074°04'0 0.1
2016-Jun-13 09:33N 40°39' W 074°04'0 0.0
2016-Jun-13 08:31N 40°39' W 074°04'0 0.0
2016-Jun-13 07:19N 40°39' W 074°04'0 0.0
2016-Jun-13 06:25N 40°39' W 074°04'0 0.0
2016-Jun-13 04:33N 40°39' W 074°04'4 4.1
2016-Jun-13 03:33N 40°42' W 074°01'0 0.1
2016-Jun-13 02:34N 40°42' W 074°01'0 0.2
2016-Jun-13 01:33N 40°42' W 074°01'0 0.0
2016-Jun-13 00:34N 40°42' W 074°01'0 0.0
2016-Jun-12 23:33N 40°42' W 074°01'0 0.0
2016-Jun-12 22:34N 40°42' W 074°01'4 4.3
2016-Jun-12 21:33N 40°39' W 074°04'0 0.2
2016-Jun-12 20:33N 40°39' W 074°04'4 4.1
2016-Jun-12 19:33N 40°42' W 074°01'4 4.3
2016-Jun-12 18:34N 40°39' W 074°04'0 0.3
2016-Jun-12 17:33N 40°39' W 074°04'4 3.9
2016-Jun-12 16:33N 40°42' W 074°01'4 4.2
2016-Jun-12 15:33N 40°39' W 074°04'0 0.0
2016-Jun-12 14:33N 40°39' W 074°04'0 0.3
2016-Jun-12 13:34N 40°39' W 074°04'0 0.0
2016-Jun-12 12:34N 40°39' W 074°04'0 0.2
2016-Jun-12 11:34N 40°39' W 074°04'0 0.2
2016-Jun-12 10:33N 40°39' W 074°04'0 0.0
2016-Jun-12 09:33N 40°39' W 074°04'0 0.0
2016-Jun-12 08:30N 40°39' W 074°04'0 0.0
2016-Jun-12 07:33N 40°39' W 074°04'0 0.0
2016-Jun-12 06:31N 40°39' W 074°04'0 0.0
2016-Jun-12 04:34N 40°39' W 074°04'4 4.3
2016-Jun-12 03:33N 40°42' W 074°01'0 0.0
2016-Jun-12 02:34N 40°42' W 074°01'0 0.0
2016-Jun-12 01:33N 40°42' W 074°01'0 0.0
2016-Jun-12 00:33N 40°42' W 074°01'0 0.0
2016-Jun-11 23:34N 40°42' W 074°01'0 0.0
2016-Jun-11 22:33N 40°42' W 074°01'4 4.3
2016-Jun-11 21:33N 40°39' W 074°04'0 0.2
2016-Jun-11 20:34N 40°39' W 074°04'4 4.1
2016-Jun-11 19:33N 40°42' W 074°01'4 8.1
2016-Jun-11 19:04N 40°39' W 074°04'0 0.8
2016-Jun-11 18:33N 40°39' W 074°04'0 0.4
2016-Jun-11 17:34N 40°39' W 074°04'4 3.9
2016-Jun-11 16:33N 40°42' W 074°01'4 4.2
2016-Jun-11 15:33N 40°39' W 074°04'0 0.4
2016-Jun-11 14:33N 40°39' W 074°04'0 0.1
2016-Jun-11 13:33N 40°39' W 074°04'0 0.1
2016-Jun-11 12:33N 40°39' W 074°04'0 0.1
2016-Jun-11 11:34N 40°39' W 074°04'0 0.2
2016-Jun-11 10:33N 40°39' W 074°04'0 0.0
2016-Jun-11 09:33N 40°39' W 074°04'0 0.0
2016-Jun-11 08:33N 40°39' W 074°04'0 0.0
2016-Jun-11 07:33N 40°39' W 074°04'0 0.0
2016-Jun-11 06:33N 40°39' W 074°04'0 0.0
2016-Jun-11 05:33N 40°39' W 074°04'0 0.0
2016-Jun-11 04:33N 40°39' W 074°04'0 0.0
2016-Jun-11 03:33N 40°39' W 074°04'0 0.1
2016-Jun-11 02:34N 40°39' W 074°04'4 4.3
2016-Jun-11 01:33N 40°42' W 074°01'4 4.3
2016-Jun-11 00:33N 40°39' W 074°04'1 1.4
2016-Jun-10 23:33N 40°40' W 074°03'0 0.3
2016-Jun-10 22:34N 40°39' W 074°03'1 0.9
2016-Jun-10 21:34N 40°39' W 074°04'0 0.3
2016-Jun-10 20:33N 40°39' W 074°04'0 0.1
2016-Jun-10 19:33N 40°39' W 074°04'4 4.2
2016-Jun-10 18:33N 40°42' W 074°01'0 0.2
2016-Jun-10 17:33N 40°42' W 074°01'4 4.0
2016-Jun-10 16:33N 40°39' W 074°04'0 0.1
2016-Jun-10 15:33N 40°39' W 074°04'0 0.2
2016-Jun-10 14:33N 40°39' W 074°04'4 4.0
2016-Jun-10 13:33N 40°42' W 074°01'0 0.0
2016-Jun-10 12:34N 40°42' W 074°01'0 0.0
2016-Jun-10 11:33N 40°42' W 074°01'4 4.2
2016-Jun-10 10:33N 40°39' W 074°04'0 0.0
2016-Jun-10 09:33N 40°39' W 074°04'0 0.0
2016-Jun-10 08:33N 40°39' W 074°04'0 0.0
2016-Jun-10 07:33N 40°39' W 074°04'0 0.0
2016-Jun-10 06:33N 40°39' W 074°04'0 0.0
2016-Jun-10 05:33N 40°39' W 074°04'0 0.0
2016-Jun-10 04:33N 40°39' W 074°04'0 0.1
2016-Jun-10 03:33N 40°39' W 074°04'0 0.4
2016-Jun-10 02:33N 40°39' W 074°04'4 3.9
2016-Jun-10 01:33N 40°42' W 074°01'4 4.2
2016-Jun-10 00:33N 40°39' W 074°04'1 1.3
2016-Jun-09 23:34N 40°40' W 074°03'1 1.0
2016-Jun-09 22:33N 40°39' W 074°04'0 0.5
2016-Jun-09 21:34N 40°39' W 074°04'0 0.4
2016-Jun-09 20:34N 40°39' W 074°04'0 0.1
2016-Jun-09 19:34N 40°39' W 074°04'4 3.9
2016-Jun-09 18:34N 40°42' W 074°01'4 3.8
2016-Jun-09 17:32N 40°39' W 074°04'0 0.1
2016-Jun-09 16:33N 40°39' W 074°04'0 0.0
2016-Jun-09 15:33N 40°39' W 074°04'0 0.0
2016-Jun-09 14:33N 40°39' W 074°04'4 4.3
2016-Jun-09 13:33N 40°42' W 074°01'0 0.0
2016-Jun-09 12:34N 40°42' W 074°01'0 0.0
2016-Jun-09 11:34N 40°42' W 074°01'4 4.3
2016-Jun-09 10:34N 40°39' W 074°04'0 0.0
2016-Jun-09 09:34N 40°39' W 074°04'0 0.0
2016-Jun-09 08:33N 40°39' W 074°04'0 0.0
2016-Jun-09 07:33N 40°39' W 074°04'0 0.0
2016-Jun-09 06:33N 40°39' W 074°04'0 0.0
2016-Jun-09 05:33N 40°39' W 074°04'0 0.0
2016-Jun-09 04:33N 40°39' W 074°04'0 0.0
2016-Jun-09 03:33N 40°39' W 074°04'0 0.3
2016-Jun-09 02:33N 40°39' W 074°04'4 3.8
2016-Jun-09 01:34N 40°42' W 074°01'4 4.0
2016-Jun-09 00:33N 40°39' W 074°04'1 1.3
2016-Jun-08 23:33N 40°40' W 074°03'1 1.1
2016-Jun-08 22:33N 40°39' W 074°04'0 0.1
2016-Jun-08 21:34N 40°39' W 074°04'0 0.2
2016-Jun-08 20:33N 40°39' W 074°04'0 0.1
2016-Jun-08 19:33N 40°39' W 074°04'4 4.1
2016-Jun-08 18:34N 40°42' W 074°01'4 4.1
2016-Jun-08 17:33N 40°39' W 074°04'0 0.3
2016-Jun-08 16:34N 40°39' W 074°04'0 0.3
2016-Jun-08 15:34N 40°39' W 074°04'0 0.3
2016-Jun-08 14:34N 40°39' W 074°04'4 3.9
2016-Jun-08 13:34N 40°42' W 074°01'0 0.1
2016-Jun-08 12:33N 40°42' W 074°01'0 0.2
2016-Jun-08 11:33N 40°42' W 074°01'4 4.3
2016-Jun-08 10:33N 40°39' W 074°04'0 0.0
2016-Jun-08 09:33N 40°39' W 074°04'0 0.0
2016-Jun-08 08:33N 40°39' W 074°04'0 0.0
2016-Jun-08 07:33N 40°39' W 074°04'0 0.0
2016-Jun-08 06:33N 40°39' W 074°04'0 0.0
2016-Jun-08 05:33N 40°39' W 074°04'0 0.0
2016-Jun-08 04:33N 40°39' W 074°04'0 0.1
2016-Jun-08 03:33N 40°39' W 074°04'0 0.2
2016-Jun-08 02:33N 40°39' W 074°04'4 4.0
2016-Jun-08 01:34N 40°42' W 074°01'4 4.1
2016-Jun-08 00:34N 40°39' W 074°04'2 1.6
2016-Jun-07 23:33N 40°40' W 074°03'1 1.3
2016-Jun-07 22:34N 40°39' W 074°04'0 0.2
2016-Jun-07 21:34N 40°39' W 074°04'0 0.1
2016-Jun-07 20:33N 40°39' W 074°04'0 0.2
2016-Jun-07 19:33N 40°39' W 074°04'4 4.1
2016-Jun-07 18:34N 40°42' W 074°01'4 4.2
2016-Jun-07 17:34N 40°39' W 074°04'0 0.1
2016-Jun-07 16:33N 40°39' W 074°04'0 0.1
2016-Jun-07 15:33N 40°39' W 074°04'0 0.3
2016-Jun-07 14:33N 40°39' W 074°04'4 3.9
2016-Jun-07 13:34N 40°42' W 074°01'0 0.0
2016-Jun-07 12:33N 40°42' W 074°01'0 0.0
2016-Jun-07 11:33N 40°42' W 074°01'4 4.2
2016-Jun-07 10:33N 40°39' W 074°04'0 0.0
2016-Jun-07 09:33N 40°39' W 074°04'0 0.0
2016-Jun-07 08:32N 40°39' W 074°04'0 0.0
2016-Jun-07 07:32N 40°39' W 074°04'0 0.0
2016-Jun-07 06:32N 40°39' W 074°04'0 0.0
2016-Jun-07 05:32N 40°39' W 074°04'0 0.0
2016-Jun-07 04:34N 40°39' W 074°04'0 0.1
2016-Jun-07 03:33N 40°39' W 074°04'0 0.4
2016-Jun-07 02:34N 40°39' W 074°04'4 3.9
2016-Jun-07 01:33N 40°42' W 074°01'4 4.2
2016-Jun-07 00:33N 40°39' W 074°04'2 2.1
2016-Jun-06 23:33N 40°40' W 074°03'1 1.0
2016-Jun-06 22:34N 40°39' W 074°03'1 0.8
2016-Jun-06 21:34N 40°39' W 074°04'0 0.4
2016-Jun-06 20:27N 40°39' W 074°04'0 0.3
2016-Jun-06 19:34N 40°39' W 074°04'4 4.1
2016-Jun-06 18:33N 40°42' W 074°01'4 4.3
2016-Jun-06 17:34N 40°39' W 074°04'0 0.0
2016-Jun-06 16:33N 40°39' W 074°04'0 0.0
2016-Jun-06 15:33N 40°39' W 074°04'0 0.2
2016-Jun-06 14:33N 40°39' W 074°04'4 3.9
2016-Jun-06 13:34N 40°42' W 074°01'0 0.1
2016-Jun-06 12:33N 40°42' W 074°01'0 0.0
2016-Jun-06 11:33N 40°42' W 074°01'4 4.2
2016-Jun-06 10:33N 40°39' W 074°04'0 0.0
2016-Jun-06 05:15N 40°39' W 074°04'0 0.2
2016-Jun-06 04:33N 40°39' W 074°04'4 4.2
2016-Jun-06 03:33N 40°42' W 074°01'0 0.1
2016-Jun-06 02:33N 40°42' W 074°01'0 0.0
2016-Jun-06 01:34N 40°42' W 074°01'0 0.1
2016-Jun-06 00:34N 40°42' W 074°01'0 0.1
2016-Jun-05 23:33N 40°42' W 074°01'0 0.0
2016-Jun-05 22:34N 40°42' W 074°01'4 4.2
2016-Jun-05 21:33N 40°39' W 074°04'0 0.2
2016-Jun-05 20:33N 40°39' W 074°04'4 4.1
2016-Jun-05 19:33N 40°42' W 074°01'4 4.3
2016-Jun-05 18:33N 40°39' W 074°04'0 0.3
2016-Jun-05 17:33N 40°39' W 074°04'4 4.0
2016-Jun-05 16:33N 40°42' W 074°01'  

Dump ship's entire track history